sensor_id;sensor_type;location;lat;lon;timestamp;P1;durP1;ratioP1;P2;durP2;ratioP2
15555;SDS011;7879;48.660;9.116;2023-03-16T00:02:05;0.40;;;0.40;;
15555;SDS011;7879;48.660;9.116;2023-03-16T00:04:32;0.40;;;0.40;;
15555;SDS011;7879;48.660;9.116;2023-03-16T00:07:21;0.45;;;0.45;;
15555;SDS011;7879;48.660;9.116;2023-03-16T00:09:48;0.40;;;0.40;;
15555;SDS011;7879;48.660;9.116;2023-03-16T00:12:15;0.30;;;0.30;;
15555;SDS011;7879;48.660;9.116;2023-03-16T00:14:44;0.40;;;0.40;;
15555;SDS011;7879;48.660;9.116;2023-03-16T00:17:13;0.40;;;0.40;;
15555;SDS011;7879;48.660;9.116;2023-03-16T00:22:33;0.45;;;0.45;;
15555;SDS011;7879;48.660;9.116;2023-03-16T00:25:00;0.30;;;0.30;;
15555;SDS011;7879;48.660;9.116;2023-03-16T00:27:27;0.40;;;0.40;;
15555;SDS011;7879;48.660;9.116;2023-03-16T00:29:54;0.40;;;0.40;;
15555;SDS011;7879;48.660;9.116;2023-03-16T00:32:23;0.47;;;0.47;;
15555;SDS011;7879;48.660;9.116;2023-03-16T00:34:52;0.40;;;0.40;;
15555;SDS011;7879;48.660;9.116;2023-03-16T00:37:19;0.40;;;0.40;;
15555;SDS011;7879;48.660;9.116;2023-03-16T00:39:48;0.40;;;0.40;;
15555;SDS011;7879;48.660;9.116;2023-03-16T00:42:17;0.40;;;0.40;;
15555;SDS011;7879;48.660;9.116;2023-03-16T00:44:45;0.40;;;0.40;;
15555;SDS011;7879;48.660;9.116;2023-03-16T00:47:12;0.40;;;0.40;;
15555;SDS011;7879;48.660;9.116;2023-03-16T00:49:40;0.30;;;0.30;;
15555;SDS011;7879;48.660;9.116;2023-03-16T00:52:10;0.40;;;0.40;;
15555;SDS011;7879;48.660;9.116;2023-03-16T00:54:44;0.40;;;0.40;;
15555;SDS011;7879;48.660;9.116;2023-03-16T00:57:12;0.50;;;0.50;;
15555;SDS011;7879;48.660;9.116;2023-03-16T00:59:41;0.30;;;0.30;;
15555;SDS011;7879;48.660;9.116;2023-03-16T01:02:08;0.40;;;0.40;;
15555;SDS011;7879;48.660;9.116;2023-03-16T01:04:36;0.40;;;0.40;;
15555;SDS011;7879;48.660;9.116;2023-03-16T01:07:09;0.50;;;0.50;;
15555;SDS011;7879;48.660;9.116;2023-03-16T01:09:38;0.40;;;0.40;;
15555;SDS011;7879;48.660;9.116;2023-03-16T01:12:08;0.30;;;0.30;;
15555;SDS011;7879;48.660;9.116;2023-03-16T01:14:40;0.32;;;0.32;;
15555;SDS011;7879;48.660;9.116;2023-03-16T01:17:07;0.40;;;0.40;;
15555;SDS011;7879;48.660;9.116;2023-03-16T01:19:35;0.40;;;0.40;;
15555;SDS011;7879;48.660;9.116;2023-03-16T01:22:03;0.30;;;0.30;;
15555;SDS011;7879;48.660;9.116;2023-03-16T01:24:34;0.30;;;0.30;;
15555;SDS011;7879;48.660;9.116;2023-03-16T01:27:01;0.40;;;0.40;;
15555;SDS011;7879;48.660;9.116;2023-03-16T01:29:30;0.40;;;0.40;;
15555;SDS011;7879;48.660;9.116;2023-03-16T01:31:57;0.50;;;0.50;;
15555;SDS011;7879;48.660;9.116;2023-03-16T01:34:24;0.30;;;0.30;;
15555;SDS011;7879;48.660;9.116;2023-03-16T01:36:51;0.40;;;0.40;;
15555;SDS011;7879;48.660;9.116;2023-03-16T01:39:19;0.40;;;0.40;;
15555;SDS011;7879;48.660;9.116;2023-03-16T01:41:46;0.50;;;0.50;;
15555;SDS011;7879;48.660;9.116;2023-03-16T01:44:14;0.30;;;0.30;;
15555;SDS011;7879;48.660;9.116;2023-03-16T01:46:44;0.40;;;0.40;;
15555;SDS011;7879;48.660;9.116;2023-03-16T01:51:53;0.40;;;0.40;;
15555;SDS011;7879;48.660;9.116;2023-03-16T01:54:32;0.50;;;0.50;;
15555;SDS011;7879;48.660;9.116;2023-03-16T01:59:38;0.30;;;0.30;;
15555;SDS011;7879;48.660;9.116;2023-03-16T02:02:12;0.40;;;0.40;;
15555;SDS011;7879;48.660;9.116;2023-03-16T02:04:42;0.40;;;0.40;;
15555;SDS011;7879;48.660;9.116;2023-03-16T02:07:19;0.50;;;0.50;;
15555;SDS011;7879;48.660;9.116;2023-03-16T02:09:50;0.30;;;0.30;;
15555;SDS011;7879;48.660;9.116;2023-03-16T02:12:21;0.40;;;0.40;;
15555;SDS011;7879;48.660;9.116;2023-03-16T02:14:48;0.40;;;0.40;;
15555;SDS011;7879;48.660;9.116;2023-03-16T02:17:17;0.50;;;0.50;;
15555;SDS011;7879;48.660;9.116;2023-03-16T02:22:36;0.30;;;0.30;;
15555;SDS011;7879;48.660;9.116;2023-03-16T02:25:08;0.40;;;0.40;;
15555;SDS011;7879;48.660;9.116;2023-03-16T02:27:38;0.40;;;0.40;;
15555;SDS011;7879;48.660;9.116;2023-03-16T02:30:17;0.40;;;0.40;;
15555;SDS011;7879;48.660;9.116;2023-03-16T02:32:45;0.40;;;0.40;;
15555;SDS011;7879;48.660;9.116;2023-03-16T02:35:14;0.30;;;0.30;;
15555;SDS011;7879;48.660;9.116;2023-03-16T02:37:40;0.40;;;0.40;;
15555;SDS011;7879;48.660;9.116;2023-03-16T02:40:23;0.40;;;0.40;;
15555;SDS011;7879;48.660;9.116;2023-03-16T02:43:07;0.40;;;0.40;;
15555;SDS011;7879;48.660;9.116;2023-03-16T02:45:42;0.50;;;0.50;;
15555;SDS011;7879;48.660;9.116;2023-03-16T02:48:13;0.30;;;0.30;;
15555;SDS011;7879;48.660;9.116;2023-03-16T02:50:48;0.40;;;0.40;;
15555;SDS011;7879;48.660;9.116;2023-03-16T02:53:18;0.40;;;0.40;;
15555;SDS011;7879;48.660;9.116;2023-03-16T02:55:46;0.50;;;0.50;;
15555;SDS011;7879;48.660;9.116;2023-03-16T02:58:13;0.30;;;0.30;;
15555;SDS011;7879;48.660;9.116;2023-03-16T03:00:40;0.40;;;0.40;;
15555;SDS011;7879;48.660;9.116;2023-03-16T03:03:07;0.40;;;0.40;;
15555;SDS011;7879;48.660;9.116;2023-03-16T03:05:35;0.50;;;0.50;;
15555;SDS011;7879;48.660;9.116;2023-03-16T03:08:02;0.40;;;0.40;;
15555;SDS011;7879;48.660;9.116;2023-03-16T03:10:30;0.30;;;0.30;;
15555;SDS011;7879;48.660;9.116;2023-03-16T03:12:56;0.40;;;0.40;;
15555;SDS011;7879;48.660;9.116;2023-03-16T03:15:23;0.40;;;0.40;;
15555;SDS011;7879;48.660;9.116;2023-03-16T03:17:50;0.40;;;0.40;;
15555;SDS011;7879;48.660;9.116;2023-03-16T03:20:17;0.30;;;0.30;;
15555;SDS011;7879;48.660;9.116;2023-03-16T03:22:45;0.40;;;0.40;;
15555;SDS011;7879;48.660;9.116;2023-03-16T03:25:15;0.40;;;0.40;;
15555;SDS011;7879;48.660;9.116;2023-03-16T03:27:43;0.50;;;0.50;;
15555;SDS011;7879;48.660;9.116;2023-03-16T03:30:12;0.30;;;0.30;;
15555;SDS011;7879;48.660;9.116;2023-03-16T03:32:43;0.40;;;0.40;;
15555;SDS011;7879;48.660;9.116;2023-03-16T03:35:11;0.40;;;0.40;;
15555;SDS011;7879;48.660;9.116;2023-03-16T03:37:39;0.50;;;0.50;;
15555;SDS011;7879;48.660;9.116;2023-03-16T03:40:08;0.30;;;0.30;;
15555;SDS011;7879;48.660;9.116;2023-03-16T03:42:37;0.40;;;0.40;;
15555;SDS011;7879;48.660;9.116;2023-03-16T03:45:04;0.40;;;0.40;;
15555;SDS011;7879;48.660;9.116;2023-03-16T03:47:33;0.50;;;0.50;;
15555;SDS011;7879;48.660;9.116;2023-03-16T03:50:00;0.30;;;0.30;;
15555;SDS011;7879;48.660;9.116;2023-03-16T03:52:27;0.40;;;0.40;;
15555;SDS011;7879;48.660;9.116;2023-03-16T03:54:53;0.40;;;0.40;;
15555;SDS011;7879;48.660;9.116;2023-03-16T03:57:20;0.40;;;0.40;;
15555;SDS011;7879;48.660;9.116;2023-03-16T03:59:47;0.30;;;0.30;;
15555;SDS011;7879;48.660;9.116;2023-03-16T04:02:14;0.40;;;0.40;;
15555;SDS011;7879;48.660;9.116;2023-03-16T04:04:41;0.40;;;0.40;;
15555;SDS011;7879;48.660;9.116;2023-03-16T04:07:09;0.43;;;0.43;;
15555;SDS011;7879;48.660;9.116;2023-03-16T04:09:37;0.30;;;0.30;;
15555;SDS011;7879;48.660;9.116;2023-03-16T04:12:04;0.40;;;0.40;;
15555;SDS011;7879;48.660;9.116;2023-03-16T04:14:31;0.47;;;0.47;;
15555;SDS011;7879;48.660;9.116;2023-03-16T04:16:58;0.35;;;0.35;;
15555;SDS011;7879;48.660;9.116;2023-03-16T04:19:25;0.40;;;0.40;;
15555;SDS011;7879;48.660;9.116;2023-03-16T04:21:52;0.40;;;0.40;;
15555;SDS011;7879;48.660;9.116;2023-03-16T04:24:19;0.50;;;0.50;;
15555;SDS011;7879;48.660;9.116;2023-03-16T04:26:47;0.30;;;0.30;;
15555;SDS011;7879;48.660;9.116;2023-03-16T04:29:14;0.40;;;0.40;;
15555;SDS011;7879;48.660;9.116;2023-03-16T04:31:44;0.45;;;0.45;;
15555;SDS011;7879;48.660;9.116;2023-03-16T04:34:12;0.50;;;0.50;;
15555;SDS011;7879;48.660;9.116;2023-03-16T04:36:39;0.30;;;0.30;;
15555;SDS011;7879;48.660;9.116;2023-03-16T04:39:07;0.40;;;0.40;;
15555;SDS011;7879;48.660;9.116;2023-03-16T04:41:35;0.43;;;0.43;;
15555;SDS011;7879;48.660;9.116;2023-03-16T04:44:02;0.40;;;0.40;;
15555;SDS011;7879;48.660;9.116;2023-03-16T04:46:29;0.30;;;0.30;;
15555;SDS011;7879;48.660;9.116;2023-03-16T04:48:57;0.40;;;0.40;;
15555;SDS011;7879;48.660;9.116;2023-03-16T04:51:24;0.50;;;0.50;;
15555;SDS011;7879;48.660;9.116;2023-03-16T04:53:51;0.30;;;0.30;;
15555;SDS011;7879;48.660;9.116;2023-03-16T04:56:18;0.40;;;0.40;;
15555;SDS011;7879;48.660;9.116;2023-03-16T04:58:46;0.50;;;0.50;;
15555;SDS011;7879;48.660;9.116;2023-03-16T05:01:14;0.47;;;0.47;;
15555;SDS011;7879;48.660;9.116;2023-03-16T05:03:42;0.40;;;0.40;;
15555;SDS011;7879;48.660;9.116;2023-03-16T05:06:09;0.40;;;0.40;;
15555;SDS011;7879;48.660;9.116;2023-03-16T05:08:37;0.50;;;0.50;;
15555;SDS011;7879;48.660;9.116;2023-03-16T05:11:04;0.30;;;0.30;;
15555;SDS011;7879;48.660;9.116;2023-03-16T05:13:31;0.40;;;0.40;;
15555;SDS011;7879;48.660;9.116;2023-03-16T05:15:58;0.40;;;0.40;;
15555;SDS011;7879;48.660;9.116;2023-03-16T05:18:26;0.50;;;0.50;;
15555;SDS011;7879;48.660;9.116;2023-03-16T05:20:53;0.38;;;0.38;;
15555;SDS011;7879;48.660;9.116;2023-03-16T05:23:21;0.40;;;0.40;;
15555;SDS011;7879;48.660;9.116;2023-03-16T05:25:48;0.50;;;0.50;;
15555;SDS011;7879;48.660;9.116;2023-03-16T05:28:16;0.40;;;0.40;;
15555;SDS011;7879;48.660;9.116;2023-03-16T05:30:43;0.40;;;0.40;;
15555;SDS011;7879;48.660;9.116;2023-03-16T05:33:13;0.40;;;0.40;;
15555;SDS011;7879;48.660;9.116;2023-03-16T05:35:40;0.50;;;0.50;;
15555;SDS011;7879;48.660;9.116;2023-03-16T05:38:08;0.30;;;0.30;;
15555;SDS011;7879;48.660;9.116;2023-03-16T05:40:38;0.40;;;0.40;;
15555;SDS011;7879;48.660;9.116;2023-03-16T05:43:04;0.40;;;0.40;;
15555;SDS011;7879;48.660;9.116;2023-03-16T05:45:31;0.50;;;0.50;;
15555;SDS011;7879;48.660;9.116;2023-03-16T05:47:58;0.35;;;0.35;;
15555;SDS011;7879;48.660;9.116;2023-03-16T05:50:25;0.40;;;0.40;;
15555;SDS011;7879;48.660;9.116;2023-03-16T05:52:53;0.40;;;0.40;;
15555;SDS011;7879;48.660;9.116;2023-03-16T05:55:20;0.50;;;0.50;;
15555;SDS011;7879;48.660;9.116;2023-03-16T05:57:47;0.30;;;0.30;;
15555;SDS011;7879;48.660;9.116;2023-03-16T06:00:14;0.40;;;0.40;;
15555;SDS011;7879;48.660;9.116;2023-03-16T06:02:42;0.40;;;0.40;;
15555;SDS011;7879;48.660;9.116;2023-03-16T06:05:12;0.50;;;0.50;;
15555;SDS011;7879;48.660;9.116;2023-03-16T06:07:40;0.30;;;0.30;;
15555;SDS011;7879;48.660;9.116;2023-03-16T06:10:07;0.40;;;0.40;;
15555;SDS011;7879;48.660;9.116;2023-03-16T06:12:34;0.40;;;0.40;;
15555;SDS011;7879;48.660;9.116;2023-03-16T06:15:01;0.50;;;0.50;;
15555;SDS011;7879;48.660;9.116;2023-03-16T06:17:33;0.30;;;0.30;;
15555;SDS011;7879;48.660;9.116;2023-03-16T06:20:00;0.40;;;0.40;;
15555;SDS011;7879;48.660;9.116;2023-03-16T06:22:27;0.40;;;0.40;;
15555;SDS011;7879;48.660;9.116;2023-03-16T06:24:55;0.50;;;0.50;;
15555;SDS011;7879;48.660;9.116;2023-03-16T06:27:22;0.30;;;0.30;;
15555;SDS011;7879;48.660;9.116;2023-03-16T06:29:51;0.40;;;0.40;;
15555;SDS011;7879;48.660;9.116;2023-03-16T06:32:21;0.45;;;0.45;;
15555;SDS011;7879;48.660;9.116;2023-03-16T06:34:48;0.50;;;0.50;;
15555;SDS011;7879;48.660;9.116;2023-03-16T06:37:15;0.30;;;0.30;;
15555;SDS011;7879;48.660;9.116;2023-03-16T06:39:42;0.40;;;0.40;;
15555;SDS011;7879;48.660;9.116;2023-03-16T06:42:09;0.40;;;0.40;;
15555;SDS011;7879;48.660;9.116;2023-03-16T06:44:36;0.50;;;0.50;;
15555;SDS011;7879;48.660;9.116;2023-03-16T06:47:03;0.30;;;0.30;;
15555;SDS011;7879;48.660;9.116;2023-03-16T06:49:30;0.40;;;0.40;;
15555;SDS011;7879;48.660;9.116;2023-03-16T06:51:57;0.40;;;0.40;;
15555;SDS011;7879;48.660;9.116;2023-03-16T06:54:27;0.50;;;0.50;;
15555;SDS011;7879;48.660;9.116;2023-03-16T06:56:54;0.30;;;0.30;;
15555;SDS011;7879;48.660;9.116;2023-03-16T06:59:20;0.30;;;0.30;;
15555;SDS011;7879;48.660;9.116;2023-03-16T07:01:48;0.40;;;0.40;;
15555;SDS011;7879;48.660;9.116;2023-03-16T07:04:15;0.40;;;0.40;;
15555;SDS011;7879;48.660;9.116;2023-03-16T07:06:42;0.50;;;0.50;;
15555;SDS011;7879;48.660;9.116;2023-03-16T07:09:09;0.40;;;0.40;;
15555;SDS011;7879;48.660;9.116;2023-03-16T07:11:38;0.30;;;0.30;;
15555;SDS011;7879;48.660;9.116;2023-03-16T07:14:05;0.40;;;0.40;;
15555;SDS011;7879;48.660;9.116;2023-03-16T07:16:32;0.40;;;0.40;;
15555;SDS011;7879;48.660;9.116;2023-03-16T07:18:59;0.40;;;0.40;;
15555;SDS011;7879;48.660;9.116;2023-03-16T07:21:26;0.40;;;0.40;;
15555;SDS011;7879;48.660;9.116;2023-03-16T07:23:53;0.45;;;0.45;;
15555;SDS011;7879;48.660;9.116;2023-03-16T07:26:20;0.30;;;0.30;;
15555;SDS011;7879;48.660;9.116;2023-03-16T07:28:48;0.30;;;0.30;;
15555;SDS011;7879;48.660;9.116;2023-03-16T07:31:15;0.30;;;0.30;;
15555;SDS011;7879;48.660;9.116;2023-03-16T07:33:41;0.30;;;0.30;;
15555;SDS011;7879;48.660;9.116;2023-03-16T07:36:09;0.30;;;0.30;;
15555;SDS011;7879;48.660;9.116;2023-03-16T07:38:36;0.35;;;0.35;;
15555;SDS011;7879;48.660;9.116;2023-03-16T07:41:03;0.38;;;0.38;;
15555;SDS011;7879;48.660;9.116;2023-03-16T07:43:30;0.40;;;0.40;;
15555;SDS011;7879;48.660;9.116;2023-03-16T07:45:56;0.40;;;0.40;;
15555;SDS011;7879;48.660;9.116;2023-03-16T07:48:24;0.40;;;0.40;;
15555;SDS011;7879;48.660;9.116;2023-03-16T07:50:51;0.40;;;0.40;;
15555;SDS011;7879;48.660;9.116;2023-03-16T07:53:19;0.40;;;0.40;;
15555;SDS011;7879;48.660;9.116;2023-03-16T07:55:46;0.40;;;0.40;;
15555;SDS011;7879;48.660;9.116;2023-03-16T07:58:12;0.40;;;0.40;;
15555;SDS011;7879;48.660;9.116;2023-03-16T08:00:39;0.40;;;0.40;;
15555;SDS011;7879;48.660;9.116;2023-03-16T08:03:07;0.40;;;0.40;;
15555;SDS011;7879;48.660;9.116;2023-03-16T08:05:34;0.40;;;0.40;;
15555;SDS011;7879;48.660;9.116;2023-03-16T08:08:01;0.40;;;0.40;;
15555;SDS011;7879;48.660;9.116;2023-03-16T08:10:28;0.40;;;0.40;;
15555;SDS011;7879;48.660;9.116;2023-03-16T08:12:56;0.40;;;0.40;;
15555;SDS011;7879;48.660;9.116;2023-03-16T08:15:23;0.40;;;0.40;;
15555;SDS011;7879;48.660;9.116;2023-03-16T08:17:50;0.30;;;0.30;;
15555;SDS011;7879;48.660;9.116;2023-03-16T08:20:17;0.30;;;0.30;;
15555;SDS011;7879;48.660;9.116;2023-03-16T08:22:44;0.30;;;0.30;;
15555;SDS011;7879;48.660;9.116;2023-03-16T08:25:13;0.30;;;0.30;;
15555;SDS011;7879;48.660;9.116;2023-03-16T08:27:40;0.20;;;0.20;;
15555;SDS011;7879;48.660;9.116;2023-03-16T08:30:09;0.30;;;0.30;;
15555;SDS011;7879;48.660;9.116;2023-03-16T08:32:37;0.40;;;0.40;;
15555;SDS011;7879;48.660;9.116;2023-03-16T08:35:06;0.30;;;0.30;;
15555;SDS011;7879;48.660;9.116;2023-03-16T08:37:34;0.30;;;0.30;;
15555;SDS011;7879;48.660;9.116;2023-03-16T08:40:01;0.20;;;0.20;;
15555;SDS011;7879;48.660;9.116;2023-03-16T08:42:31;0.30;;;0.30;;
15555;SDS011;7879;48.660;9.116;2023-03-16T08:44:57;0.30;;;0.30;;
15555;SDS011;7879;48.660;9.116;2023-03-16T08:47:26;0.30;;;0.30;;
15555;SDS011;7879;48.660;9.116;2023-03-16T08:49:55;0.20;;;0.20;;
15555;SDS011;7879;48.660;9.116;2023-03-16T08:52:22;0.30;;;0.30;;
15555;SDS011;7879;48.660;9.116;2023-03-16T08:54:49;0.30;;;0.30;;
15555;SDS011;7879;48.660;9.116;2023-03-16T08:57:28;0.20;;;0.20;;
15555;SDS011;7879;48.660;9.116;2023-03-16T08:59:55;0.30;;;0.30;;
15555;SDS011;7879;48.660;9.116;2023-03-16T09:02:22;0.30;;;0.30;;
15555;SDS011;7879;48.660;9.116;2023-03-16T09:04:50;0.20;;;0.20;;
15555;SDS011;7879;48.660;9.116;2023-03-16T09:07:18;0.20;;;0.20;;
15555;SDS011;7879;48.660;9.116;2023-03-16T09:09:45;0.30;;;0.30;;
15555;SDS011;7879;48.660;9.116;2023-03-16T09:12:12;0.20;;;0.20;;
15555;SDS011;7879;48.660;9.116;2023-03-16T09:14:39;0.20;;;0.20;;
15555;SDS011;7879;48.660;9.116;2023-03-16T09:17:06;0.30;;;0.30;;
15555;SDS011;7879;48.660;9.116;2023-03-16T09:19:33;0.20;;;0.20;;
15555;SDS011;7879;48.660;9.116;2023-03-16T09:22:16;0.20;;;0.20;;
15555;SDS011;7879;48.660;9.116;2023-03-16T09:24:44;0.20;;;0.20;;
15555;SDS011;7879;48.660;9.116;2023-03-16T09:27:11;0.10;;;0.10;;
15555;SDS011;7879;48.660;9.116;2023-03-16T09:29:38;0.20;;;0.20;;
15555;SDS011;7879;48.660;9.116;2023-03-16T09:32:06;0.20;;;0.20;;
15555;SDS011;7879;48.660;9.116;2023-03-16T09:34:33;0.10;;;0.10;;
15555;SDS011;7879;48.660;9.116;2023-03-16T09:37:00;0.10;;;0.10;;
15555;SDS011;7879;48.660;9.116;2023-03-16T09:39:27;0.10;;;0.10;;
15555;SDS011;7879;48.660;9.116;2023-03-16T09:41:57;0.10;;;0.10;;
15555;SDS011;7879;48.660;9.116;2023-03-16T09:44:33;0.10;;;0.10;;
15555;SDS011;7879;48.660;9.116;2023-03-16T09:47:05;0.00;;;0.00;;
15555;SDS011;7879;48.660;9.116;2023-03-16T09:49:39;0.10;;;0.10;;
15555;SDS011;7879;48.660;9.116;2023-03-16T09:55:31;0.00;;;0.00;;
15555;SDS011;7879;48.660;9.116;2023-03-16T09:58:02;0.10;;;0.10;;
15555;SDS011;7879;48.660;9.116;2023-03-16T10:00:46;0.10;;;0.10;;
15555;SDS011;7879;48.660;9.116;2023-03-16T10:06:10;0.10;;;0.10;;
15555;SDS011;7879;48.660;9.116;2023-03-16T10:08:42;0.10;;;0.10;;
15555;SDS011;7879;48.660;9.116;2023-03-16T10:11:35;0.10;;;0.10;;
15555;SDS011;7879;48.660;9.116;2023-03-16T10:14:08;0.10;;;0.10;;
15555;SDS011;7879;48.660;9.116;2023-03-16T10:19:40;0.08;;;0.08;;
15555;SDS011;7879;48.660;9.116;2023-03-16T10:27:37;0.10;;;0.10;;
15555;SDS011;7879;48.660;9.116;2023-03-16T10:30:09;0.00;;;0.00;;
15555;SDS011;7879;48.660;9.116;2023-03-16T10:32:45;0.00;;;0.00;;
15555;SDS011;7879;48.660;9.116;2023-03-16T10:35:29;0.00;;;0.00;;
15555;SDS011;7879;48.660;9.116;2023-03-16T10:44:38;0.00;;;0.00;;
15555;SDS011;7879;48.660;9.116;2023-03-16T10:46:45;0.00;;;0.00;;
15555;SDS011;7879;48.660;9.116;2023-03-16T10:49:21;0.00;;;0.00;;
15555;SDS011;7879;48.660;9.116;2023-03-16T10:55:40;0.00;;;0.00;;
15555;SDS011;7879;48.660;9.116;2023-03-16T10:58:07;0.00;;;0.00;;
15555;SDS011;7879;48.660;9.116;2023-03-16T11:00:35;0.00;;;0.00;;
15555;SDS011;7879;48.660;9.116;2023-03-16T11:03:12;0.00;;;0.00;;
15555;SDS011;7879;48.660;9.116;2023-03-16T11:05:55;0.00;;;0.00;;
15555;SDS011;7879;48.660;9.116;2023-03-16T11:08:30;0.00;;;0.00;;
15555;SDS011;7879;48.660;9.116;2023-03-16T11:11:24;0.00;;;0.00;;
15555;SDS011;7879;48.660;9.116;2023-03-16T11:13:55;0.00;;;0.00;;
15555;SDS011;7879;48.660;9.116;2023-03-16T11:16:36;0.00;;;0.00;;
15555;SDS011;7879;48.660;9.116;2023-03-16T11:19:14;0.00;;;0.00;;
15555;SDS011;7879;48.660;9.116;2023-03-16T11:22:02;0.00;;;0.00;;
15555;SDS011;7879;48.660;9.116;2023-03-16T11:24:32;0.00;;;0.00;;
15555;SDS011;7879;48.660;9.116;2023-03-16T11:27:51;0.00;;;0.00;;
15555;SDS011;7879;48.660;9.116;2023-03-16T11:30:02;0.00;;;0.00;;
15555;SDS011;7879;48.660;9.116;2023-03-16T11:32:46;0.00;;;0.00;;
15555;SDS011;7879;48.660;9.116;2023-03-16T11:40:28;0.00;;;0.00;;
15555;SDS011;7879;48.660;9.116;2023-03-16T11:45:40;0.00;;;0.00;;
15555;SDS011;7879;48.660;9.116;2023-03-16T11:48:18;0.00;;;0.00;;
15555;SDS011;7879;48.660;9.116;2023-03-16T11:50:52;0.00;;;0.00;;
15555;SDS011;7879;48.660;9.116;2023-03-16T11:53:46;0.00;;;0.00;;
15555;SDS011;7879;48.660;9.116;2023-03-16T11:56:17;0.00;;;0.00;;
15555;SDS011;7879;48.660;9.116;2023-03-16T12:01:53;0.00;;;0.00;;
15555;SDS011;7879;48.660;9.116;2023-03-16T12:17:35;0.00;;;0.00;;
15555;SDS011;7879;48.660;9.116;2023-03-16T12:20:05;0.00;;;0.00;;
15555;SDS011;7879;48.660;9.116;2023-03-16T12:22:57;0.10;;;0.10;;
15555;SDS011;7879;48.660;9.116;2023-03-16T12:25:54;0.00;;;0.00;;
15555;SDS011;7879;48.660;9.116;2023-03-16T12:28:25;0.10;;;0.10;;
15555;SDS011;7879;48.660;9.116;2023-03-16T12:31:11;0.10;;;0.10;;
15555;SDS011;7879;48.660;9.116;2023-03-16T12:44:46;0.10;;;0.10;;
15555;SDS011;7879;48.660;9.116;2023-03-16T12:50:48;0.10;;;0.10;;
15555;SDS011;7879;48.660;9.116;2023-03-16T12:53:24;0.10;;;0.10;;
15555;SDS011;7879;48.660;9.116;2023-03-16T12:55:53;0.10;;;0.10;;
15555;SDS011;7879;48.660;9.116;2023-03-16T12:58:23;0.10;;;0.10;;
15555;SDS011;7879;48.660;9.116;2023-03-16T13:00:55;0.10;;;0.10;;
15555;SDS011;7879;48.660;9.116;2023-03-16T13:03:24;0.10;;;0.10;;
15555;SDS011;7879;48.660;9.116;2023-03-16T13:05:55;0.10;;;0.10;;
15555;SDS011;7879;48.660;9.116;2023-03-16T13:08:24;0.10;;;0.10;;
15555;SDS011;7879;48.660;9.116;2023-03-16T13:11:06;0.10;;;0.10;;
15555;SDS011;7879;48.660;9.116;2023-03-16T13:17:03;0.10;;;0.10;;
15555;SDS011;7879;48.660;9.116;2023-03-16T13:22:27;0.10;;;0.10;;
15555;SDS011;7879;48.660;9.116;2023-03-16T13:28:04;0.10;;;0.10;;
15555;SDS011;7879;48.660;9.116;2023-03-16T13:30:32;0.10;;;0.10;;
15555;SDS011;7879;48.660;9.116;2023-03-16T13:33:05;0.10;;;0.10;;
15555;SDS011;7879;48.660;9.116;2023-03-16T13:35:39;0.10;;;0.10;;
15555;SDS011;7879;48.660;9.116;2023-03-16T13:38:12;0.10;;;0.10;;
15555;SDS011;7879;48.660;9.116;2023-03-16T13:40:45;0.10;;;0.10;;
15555;SDS011;7879;48.660;9.116;2023-03-16T13:43:17;0.10;;;0.10;;
15555;SDS011;7879;48.660;9.116;2023-03-16T13:45:48;0.10;;;0.10;;
15555;SDS011;7879;48.660;9.116;2023-03-16T13:48:15;0.10;;;0.10;;
15555;SDS011;7879;48.660;9.116;2023-03-16T13:50:43;0.10;;;0.10;;
15555;SDS011;7879;48.660;9.116;2023-03-16T13:53:21;0.10;;;0.10;;
15555;SDS011;7879;48.660;9.116;2023-03-16T13:55:56;0.10;;;0.10;;
15555;SDS011;7879;48.660;9.116;2023-03-16T13:58:27;0.10;;;0.10;;
15555;SDS011;7879;48.660;9.116;2023-03-16T14:01:01;0.10;;;0.10;;
15555;SDS011;7879;48.660;9.116;2023-03-16T14:03:33;0.10;;;0.10;;
15555;SDS011;7879;48.660;9.116;2023-03-16T14:06:02;0.10;;;0.10;;
15555;SDS011;7879;48.660;9.116;2023-03-16T14:08:31;0.10;;;0.10;;
15555;SDS011;7879;48.660;9.116;2023-03-16T14:10:59;0.10;;;0.10;;
15555;SDS011;7879;48.660;9.116;2023-03-16T14:15:54;0.10;;;0.10;;
15555;SDS011;7879;48.660;9.116;2023-03-16T14:19:00;0.10;;;0.10;;
15555;SDS011;7879;48.660;9.116;2023-03-16T14:21:21;0.10;;;0.10;;
15555;SDS011;7879;48.660;9.116;2023-03-16T14:23:52;0.10;;;0.10;;
15555;SDS011;7879;48.660;9.116;2023-03-16T14:26:22;0.10;;;0.10;;
15555;SDS011;7879;48.660;9.116;2023-03-16T14:29:01;0.10;;;0.10;;
15555;SDS011;7879;48.660;9.116;2023-03-16T14:31:34;0.10;;;0.10;;
15555;SDS011;7879;48.660;9.116;2023-03-16T14:34:04;0.10;;;0.10;;
15555;SDS011;7879;48.660;9.116;2023-03-16T14:36:44;0.10;;;0.10;;
15555;SDS011;7879;48.660;9.116;2023-03-16T14:39:12;0.10;;;0.10;;
15555;SDS011;7879;48.660;9.116;2023-03-16T14:41:47;0.10;;;0.10;;
15555;SDS011;7879;48.660;9.116;2023-03-16T14:44:25;0.10;;;0.10;;
15555;SDS011;7879;48.660;9.116;2023-03-16T14:46:57;0.10;;;0.10;;
15555;SDS011;7879;48.660;9.116;2023-03-16T14:49:29;0.10;;;0.10;;
15555;SDS011;7879;48.660;9.116;2023-03-16T14:54:33;0.10;;;0.10;;
15555;SDS011;7879;48.660;9.116;2023-03-16T14:57:01;0.10;;;0.10;;
15555;SDS011;7879;48.660;9.116;2023-03-16T14:59:31;0.10;;;0.10;;
15555;SDS011;7879;48.660;9.116;2023-03-16T15:01:58;0.10;;;0.10;;
15555;SDS011;7879;48.660;9.116;2023-03-16T15:04:31;0.10;;;0.10;;
15555;SDS011;7879;48.660;9.116;2023-03-16T15:07:00;0.10;;;0.10;;
15555;SDS011;7879;48.660;9.116;2023-03-16T15:09:39;0.10;;;0.10;;
15555;SDS011;7879;48.660;9.116;2023-03-16T15:12:20;0.10;;;0.10;;
15555;SDS011;7879;48.660;9.116;2023-03-16T15:14:49;0.10;;;0.10;;
15555;SDS011;7879;48.660;9.116;2023-03-16T15:17:35;0.10;;;0.10;;
15555;SDS011;7879;48.660;9.116;2023-03-16T15:20:02;0.10;;;0.10;;
15555;SDS011;7879;48.660;9.116;2023-03-16T15:22:30;0.10;;;0.10;;
15555;SDS011;7879;48.660;9.116;2023-03-16T15:25:24;0.10;;;0.10;;
15555;SDS011;7879;48.660;9.116;2023-03-16T15:28:10;0.10;;;0.10;;
15555;SDS011;7879;48.660;9.116;2023-03-16T15:30:46;0.10;;;0.10;;
15555;SDS011;7879;48.660;9.116;2023-03-16T15:33:15;0.10;;;0.10;;
15555;SDS011;7879;48.660;9.116;2023-03-16T15:35:43;0.10;;;0.10;;
15555;SDS011;7879;48.660;9.116;2023-03-16T15:38:21;0.10;;;0.10;;
15555;SDS011;7879;48.660;9.116;2023-03-16T15:40:51;0.10;;;0.10;;
15555;SDS011;7879;48.660;9.116;2023-03-16T15:43:22;0.10;;;0.10;;
15555;SDS011;7879;48.660;9.116;2023-03-16T15:45:52;0.10;;;0.10;;
15555;SDS011;7879;48.660;9.116;2023-03-16T15:48:20;0.10;;;0.10;;
15555;SDS011;7879;48.660;9.116;2023-03-16T15:50:54;0.10;;;0.10;;
15555;SDS011;7879;48.660;9.116;2023-03-16T15:53:34;0.10;;;0.10;;
15555;SDS011;7879;48.660;9.116;2023-03-16T15:56:08;0.10;;;0.10;;
15555;SDS011;7879;48.660;9.116;2023-03-16T15:58:39;0.10;;;0.10;;
15555;SDS011;7879;48.660;9.116;2023-03-16T16:01:10;0.13;;;0.13;;
15555;SDS011;7879;48.660;9.116;2023-03-16T16:03:47;0.17;;;0.17;;
15555;SDS011;7879;48.660;9.116;2023-03-16T16:06:15;0.20;;;0.20;;
15555;SDS011;7879;48.660;9.116;2023-03-16T16:08:42;0.15;;;0.15;;
15555;SDS011;7879;48.660;9.116;2023-03-16T16:11:15;0.10;;;0.10;;
15555;SDS011;7879;48.660;9.116;2023-03-16T16:13:48;0.10;;;0.10;;
15555;SDS011;7879;48.660;9.116;2023-03-16T16:16:16;0.10;;;0.10;;
15555;SDS011;7879;48.660;9.116;2023-03-16T16:18:44;0.10;;;0.10;;
15555;SDS011;7879;48.660;9.116;2023-03-16T16:21:16;0.10;;;0.10;;
15555;SDS011;7879;48.660;9.116;2023-03-16T16:23:49;0.20;;;0.20;;
15555;SDS011;7879;48.660;9.116;2023-03-16T16:26:19;0.10;;;0.10;;
15555;SDS011;7879;48.660;9.116;2023-03-16T16:29:13;0.17;;;0.17;;
15555;SDS011;7879;48.660;9.116;2023-03-16T16:31:42;0.20;;;0.20;;
15555;SDS011;7879;48.660;9.116;2023-03-16T16:34:16;0.10;;;0.10;;
15555;SDS011;7879;48.660;9.116;2023-03-16T16:36:46;0.10;;;0.10;;
15555;SDS011;7879;48.660;9.116;2023-03-16T16:39:14;0.10;;;0.10;;
15555;SDS011;7879;48.660;9.116;2023-03-16T16:41:41;0.20;;;0.20;;
15555;SDS011;7879;48.660;9.116;2023-03-16T16:44:19;0.20;;;0.20;;
15555;SDS011;7879;48.660;9.116;2023-03-16T16:46:52;0.10;;;0.10;;
15555;SDS011;7879;48.660;9.116;2023-03-16T16:49:24;0.10;;;0.10;;